createdAt,value
2022-11-27T00:01:14.544Z,10.97
2022-11-27T00:03:42.090Z,12.47
2022-11-27T00:06:13.066Z,11.53
2022-11-27T00:08:39.701Z,9.10
2022-11-27T00:11:15.215Z,7.27
2022-11-27T00:13:42.061Z,8.20
2022-11-27T00:16:09.695Z,10.97
2022-11-27T00:18:36.918Z,9.17
2022-11-27T00:21:14.828Z,9.73
2022-11-27T00:23:41.442Z,13.00
2022-11-27T00:26:09.528Z,11.27
2022-11-27T00:28:36.742Z,12.17
2022-11-27T00:31:29.455Z,8.93
2022-11-27T00:33:58.219Z,9.03
2022-11-27T00:36:25.787Z,8.93
2022-11-27T00:38:52.743Z,8.33
2022-11-27T00:41:22.000Z,10.20
2022-11-27T00:43:49.237Z,10.23
2022-11-27T00:46:17.360Z,8.17
2022-11-27T00:48:44.872Z,9.10
2022-11-27T00:51:14.356Z,9.00
2022-11-27T00:53:44.722Z,8.67
2022-11-27T00:56:17.841Z,11.30
2022-11-27T00:58:44.841Z,8.70
2022-11-27T01:01:39.814Z,12.47
2022-11-27T01:04:08.465Z,8.93
2022-11-27T01:06:35.013Z,11.67
2022-11-27T01:09:02.099Z,10.20
2022-11-27T01:11:32.654Z,7.73
2022-11-27T01:14:02.510Z,8.70
2022-11-27T01:16:32.248Z,7.10
2022-11-27T01:19:00.471Z,7.87
2022-11-27T01:21:30.381Z,8.70
2022-11-27T01:23:56.995Z,9.40
2022-11-27T01:26:24.055Z,10.80
2022-11-27T01:28:55.392Z,10.50
2022-11-27T01:31:24.932Z,9.93
2022-11-27T01:34:00.911Z,11.27
2022-11-27T01:36:29.013Z,12.30
2022-11-27T01:38:56.026Z,10.70
2022-11-27T01:41:26.064Z,7.60
2022-11-27T01:44:04.444Z,8.80
2022-11-27T01:46:46.887Z,9.00
2022-11-27T01:49:36.823Z,8.47
2022-11-27T01:52:27.957Z,10.60
2022-11-27T01:54:59.636Z,7.67
2022-11-27T01:57:30.713Z,7.40
2022-11-27T02:00:00.643Z,8.87
2022-11-27T02:02:27.388Z,7.47
2022-11-27T02:04:58.563Z,7.37
2022-11-27T02:07:25.305Z,9.50
2022-11-27T02:09:52.071Z,8.57
2022-11-27T02:12:27.111Z,8.27
2022-11-27T02:15:04.280Z,7.90
2022-11-27T02:17:41.031Z,8.47
2022-11-27T02:20:22.822Z,7.97
2022-11-27T02:23:18.905Z,7.07
2022-11-27T02:25:57.523Z,7.40
2022-11-27T02:29:01.978Z,7.30
2022-11-27T02:31:36.363Z,6.60
2022-11-27T02:34:13.722Z,9.00
2022-11-27T02:36:43.683Z,7.17
2022-11-27T02:39:18.211Z,6.50
2022-11-27T02:41:52.733Z,7.63
2022-11-27T02:44:21.374Z,7.70
2022-11-27T02:46:49.891Z,7.10
2022-11-27T02:49:19.151Z,9.00
2022-11-27T02:51:54.744Z,7.17
2022-11-27T02:54:30.317Z,6.67
2022-11-27T02:57:01.823Z,9.03
2022-11-27T02:59:31.494Z,5.77
2022-11-27T03:02:02.899Z,6.57
2022-11-27T03:04:39.291Z,7.60
2022-11-27T03:07:13.151Z,6.90
2022-11-27T03:09:43.497Z,6.47
2022-11-27T03:12:12.314Z,5.77
2022-11-27T03:14:42.289Z,5.07
2022-11-27T03:17:33.172Z,5.87
2022-11-27T03:20:26.368Z,7.40
2022-11-27T03:22:55.128Z,6.63
2022-11-27T03:25:23.093Z,6.27
2022-11-27T03:27:58.681Z,5.87
2022-11-27T03:30:25.431Z,5.93
2022-11-27T03:32:52.104Z,4.13
2022-11-27T03:35:22.074Z,4.90
2022-11-27T03:37:48.913Z,7.00
2022-11-27T03:40:16.437Z,5.60
2022-11-27T03:43:12.336Z,4.97
2022-11-27T03:45:52.607Z,5.57
2022-11-27T03:49:13.636Z,4.63
2022-11-27T03:51:56.544Z,3.70
2022-11-27T03:54:49.393Z,4.30
2022-11-27T03:57:37.733Z,4.60
2022-11-27T04:00:09.433Z,4.10
2022-11-27T04:02:43.263Z,4.73
2022-11-27T04:05:11.163Z,4.10
2022-11-27T04:07:37.894Z,4.30
2022-11-27T04:10:05.453Z,4.23
2022-11-27T04:12:32.231Z,5.90
2022-11-27T04:14:59.044Z,4.20
2022-11-27T04:17:26.026Z,4.60
2022-11-27T04:19:52.764Z,4.93
2022-11-27T04:22:19.667Z,4.30
2022-11-27T04:24:46.613Z,4.00
2022-11-27T04:27:13.297Z,4.17
2022-11-27T04:29:40.014Z,4.60
2022-11-27T04:32:06.729Z,4.70
2022-11-27T04:34:33.419Z,4.60
2022-11-27T04:37:00.026Z,4.30
2022-11-27T04:39:26.884Z,4.50
2022-11-27T04:41:53.487Z,3.47
2022-11-27T04:44:22.722Z,4.00
2022-11-27T04:46:50.226Z,4.30
2022-11-27T04:49:16.930Z,5.03
2022-11-27T04:51:43.526Z,4.40
2022-11-27T04:54:10.085Z,4.13
2022-11-27T04:56:36.694Z,4.73
2022-11-27T04:59:04.241Z,4.43
2022-11-27T05:01:31.100Z,5.20
2022-11-27T05:03:57.684Z,5.47
2022-11-27T05:06:24.333Z,5.37
2022-11-27T05:08:50.939Z,4.83
2022-11-27T05:11:18.063Z,4.70
2022-11-27T05:13:44.993Z,4.27
2022-11-27T05:16:11.851Z,5.13
2022-11-27T05:18:38.448Z,4.90
2022-11-27T05:21:07.477Z,5.13
2022-11-27T05:23:34.862Z,6.13
2022-11-27T05:26:01.897Z,5.37
2022-11-27T05:28:28.460Z,5.10
2022-11-27T05:30:55.227Z,4.63
2022-11-27T05:33:21.860Z,4.10
2022-11-27T05:35:48.426Z,4.90
2022-11-27T05:38:15.033Z,4.40
2022-11-27T05:40:41.637Z,4.70
2022-11-27T05:43:08.259Z,4.77
2022-11-27T05:45:34.812Z,4.40
2022-11-27T05:48:01.418Z,4.13
2022-11-27T05:50:28.051Z,4.40
2022-11-27T05:52:54.629Z,4.40
2022-11-27T05:55:21.218Z,4.10
2022-11-27T05:57:47.922Z,3.77
2022-11-27T06:00:15.386Z,5.17
2022-11-27T06:02:42.026Z,5.83
2022-11-27T06:05:09.039Z,6.57
2022-11-27T06:07:35.747Z,4.83
2022-11-27T06:10:02.317Z,4.83
2022-11-27T06:12:30.789Z,4.47
2022-11-27T06:14:57.340Z,5.50
2022-11-27T06:17:24.090Z,4.93
2022-11-27T06:19:51.672Z,4.20
2022-11-27T06:22:18.371Z,9.50
2022-11-27T06:24:44.956Z,4.40
2022-11-27T06:27:11.766Z,5.47
2022-11-27T06:29:38.764Z,4.10
2022-11-27T06:32:06.755Z,4.47
2022-11-27T06:34:33.497Z,4.30
2022-11-27T06:37:00.022Z,4.07
2022-11-27T06:39:26.910Z,4.50
2022-11-27T06:41:53.439Z,5.73
2022-11-27T06:44:20.109Z,3.50
2022-11-27T06:46:46.793Z,4.47
2022-11-27T06:49:13.340Z,5.10
2022-11-27T06:51:39.992Z,4.37
2022-11-27T06:54:06.582Z,4.77
2022-11-27T06:56:33.210Z,4.50
2022-11-27T06:59:01.533Z,5.63
2022-11-27T07:01:30.372Z,4.50
2022-11-27T07:03:57.801Z,4.40
2022-11-27T07:06:26.860Z,4.47
2022-11-27T07:08:55.058Z,4.00
2022-11-27T07:11:24.363Z,4.20
2022-11-27T07:13:55.402Z,4.00
2022-11-27T07:16:22.155Z,3.60
2022-11-27T07:18:51.791Z,4.73
2022-11-27T07:21:18.770Z,4.97
2022-11-27T07:23:46.097Z,4.63
2022-11-27T07:26:18.883Z,6.90
2022-11-27T07:28:45.828Z,4.80
2022-11-27T07:31:14.681Z,3.90
2022-11-27T07:33:41.370Z,4.67
2022-11-27T07:36:12.624Z,4.43
2022-11-27T07:38:39.327Z,6.47
2022-11-27T07:41:06.593Z,4.90
2022-11-27T07:43:34.625Z,5.30
2022-11-27T07:46:10.478Z,5.50
2022-11-27T07:48:37.750Z,6.47
2022-11-27T07:51:09.419Z,9.10
2022-11-27T07:53:41.274Z,5.10
2022-11-27T07:56:10.016Z,5.77
2022-11-27T07:58:36.816Z,5.57
2022-11-27T08:01:12.663Z,4.90
2022-11-27T08:03:39.914Z,6.03
2022-11-27T08:06:21.029Z,5.90
2022-11-27T08:08:47.910Z,6.07
2022-11-27T08:11:20.117Z,4.90
2022-11-27T08:13:46.724Z,7.03
2022-11-27T08:16:13.390Z,6.20
2022-11-27T08:18:40.063Z,7.33
2022-11-27T08:21:06.930Z,7.27
2022-11-27T08:23:33.781Z,7.40
2022-11-27T08:26:00.472Z,7.83
2022-11-27T08:28:27.078Z,6.83
2022-11-27T08:31:01.608Z,7.87
2022-11-27T08:33:29.056Z,6.40
2022-11-27T08:35:55.698Z,9.20
2022-11-27T08:38:22.517Z,6.93
2022-11-27T08:41:00.591Z,7.13
2022-11-27T08:43:28.635Z,10.30
2022-11-27T08:45:56.204Z,6.20
2022-11-27T08:48:24.426Z,4.80
2022-11-27T08:50:53.233Z,6.87
2022-11-27T08:53:20.060Z,6.90
2022-11-27T08:55:47.438Z,6.47
2022-11-27T08:58:14.452Z,6.40
2022-11-27T09:00:41.691Z,7.67
2022-11-27T09:03:11.724Z,5.90
2022-11-27T09:05:43.256Z,5.40
2022-11-27T09:08:09.884Z,4.77
2022-11-27T09:10:37.284Z,5.33
2022-11-27T09:13:03.896Z,5.73
2022-11-27T09:15:30.468Z,5.23
2022-11-27T09:17:57.189Z,6.50
2022-11-27T09:20:23.766Z,9.40
2022-11-27T09:22:50.301Z,4.77
2022-11-27T09:25:17.068Z,4.70
2022-11-27T09:27:43.734Z,5.23
2022-11-27T09:30:10.928Z,5.57
2022-11-27T09:32:37.834Z,6.73
2022-11-27T09:35:05.056Z,5.88
2022-11-27T09:37:31.714Z,4.97
2022-11-27T09:39:59.182Z,4.30
2022-11-27T09:42:58.170Z,4.70
2022-11-27T09:45:27.005Z,4.97
2022-11-27T09:47:59.384Z,6.43
2022-11-27T09:50:34.722Z,3.53
2022-11-27T09:53:06.783Z,4.40
2022-11-27T09:55:38.293Z,3.70
2022-11-27T09:58:13.110Z,4.70
2022-11-27T10:00:39.957Z,4.73
2022-11-27T10:03:13.982Z,5.33
2022-11-27T10:06:04.944Z,4.93
2022-11-27T10:08:37.334Z,5.43
2022-11-27T10:11:12.770Z,6.03
2022-11-27T10:13:51.450Z,5.77
2022-11-27T10:16:42.885Z,5.27
2022-11-27T10:19:35.952Z,5.87
2022-11-27T10:22:27.902Z,5.40
2022-11-27T10:25:11.685Z,6.17
2022-11-27T10:27:48.597Z,4.80
2022-11-27T10:30:17.399Z,6.30
2022-11-27T10:32:55.040Z,5.33
2022-11-27T10:35:27.939Z,5.20
2022-11-27T10:38:17.304Z,4.30
2022-11-27T10:41:04.032Z,5.10
2022-11-27T10:43:30.700Z,5.50
2022-11-27T10:46:09.213Z,5.97
2022-11-27T10:48:35.832Z,4.07
2022-11-27T10:51:02.343Z,4.83
2022-11-27T10:53:43.991Z,4.70
2022-11-27T10:56:16.132Z,5.30
2022-11-27T10:58:50.303Z,5.90
2022-11-27T11:01:19.604Z,5.20
2022-11-27T11:03:46.926Z,4.40
2022-11-27T11:06:21.888Z,5.00
2022-11-27T11:09:02.664Z,5.00
2022-11-27T11:11:29.188Z,5.00
2022-11-27T11:13:55.879Z,5.73
2022-11-27T11:16:34.804Z,5.60
2022-11-27T11:19:02.685Z,5.30
2022-11-27T11:21:33.387Z,5.90
2022-11-27T11:24:06.871Z,5.60
2022-11-27T11:26:38.341Z,6.33
2022-11-27T11:29:16.511Z,4.47
2022-11-27T11:31:43.757Z,4.70
2022-11-27T11:34:22.497Z,5.10
2022-11-27T11:36:57.610Z,5.30
2022-11-27T11:39:27.115Z,7.23
2022-11-27T11:41:53.699Z,6.40
2022-11-27T11:44:30.884Z,6.27
2022-11-27T11:46:57.408Z,6.60
2022-11-27T11:49:28.110Z,6.83
2022-11-27T11:52:06.499Z,5.50
2022-11-27T11:54:54.967Z,5.90
2022-11-27T11:57:36.760Z,7.50
2022-11-27T12:00:11.423Z,5.30
2022-11-27T12:02:59.948Z,5.00
2022-11-27T12:05:41.432Z,8.67
2022-11-27T12:08:17.964Z,7.20
2022-11-27T12:10:56.624Z,8.07
2022-11-27T12:13:34.490Z,7.17
2022-11-27T12:16:17.613Z,9.17
2022-11-27T12:18:44.164Z,8.80
2022-11-27T12:21:47.688Z,8.60
2022-11-27T12:24:28.220Z,7.07
2022-11-27T12:27:13.662Z,7.90
2022-11-27T12:29:49.807Z,7.10
2022-11-27T12:32:45.939Z,7.20
2022-11-27T12:35:54.235Z,6.90
2022-11-27T12:38:32.986Z,7.17
2022-11-27T12:41:10.102Z,6.77
2022-11-27T12:43:44.581Z,5.93
2022-11-27T12:46:22.663Z,9.33
2022-11-27T12:48:58.850Z,14.63
2022-11-27T12:51:29.867Z,7.83
2022-11-27T12:54:18.833Z,8.70
2022-11-27T12:56:50.198Z,10.00
2022-11-27T12:59:25.561Z,5.00
2022-11-27T13:02:24.498Z,7.23
2022-11-27T13:05:02.552Z,7.90
2022-11-27T13:07:46.095Z,8.50
2022-11-27T13:10:22.438Z,6.17
2022-11-27T13:12:59.880Z,6.93
2022-11-27T13:15:55.904Z,8.00
2022-11-27T13:18:50.409Z,8.87
2022-11-27T13:21:29.198Z,7.67
2022-11-27T13:23:55.859Z,17.70
2022-11-27T13:26:31.679Z,9.50
2022-11-27T13:29:06.304Z,7.30
2022-11-27T13:31:39.068Z,7.70
2022-11-27T13:34:16.936Z,9.40
2022-11-27T13:36:46.336Z,11.20
2022-11-27T13:39:45.509Z,8.60
2022-11-27T13:42:12.080Z,7.87
2022-11-27T13:44:44.406Z,10.50
2022-11-27T13:47:15.615Z,12.20
2022-11-27T13:49:43.438Z,11.60
2022-11-27T13:52:09.907Z,10.03
2022-11-27T13:54:36.474Z,10.60
2022-11-27T13:57:16.802Z,12.37
2022-11-27T13:59:56.930Z,8.33
2022-11-27T14:02:24.522Z,10.30
2022-11-27T14:04:56.127Z,9.43
2022-11-27T14:07:24.011Z,8.07
2022-11-27T14:09:58.457Z,11.77
2022-11-27T14:12:28.257Z,9.27
2022-11-27T14:15:18.365Z,9.50
2022-11-27T14:17:47.742Z,11.23
2022-11-27T14:20:17.211Z,11.10
2022-11-27T14:23:10.612Z,10.23
2022-11-27T14:25:36.584Z,8.27
2022-11-27T14:28:16.956Z,8.87
2022-11-27T14:30:49.807Z,12.10
2022-11-27T14:33:26.779Z,13.90
2022-11-27T14:36:04.500Z,11.27
2022-11-27T14:38:33.222Z,12.27
2022-11-27T14:41:32.343Z,11.80
2022-11-27T14:44:07.165Z,8.40
2022-11-27T14:46:36.675Z,9.90
2022-11-27T14:49:03.546Z,8.50
2022-11-27T14:51:33.231Z,10.30
2022-11-27T14:54:25.540Z,12.30
2022-11-27T14:56:52.834Z,11.13
2022-11-27T14:59:22.246Z,10.73
2022-11-27T15:02:19.535Z,10.17
2022-11-27T15:04:48.104Z,9.20
2022-11-27T15:07:16.105Z,14.20
2022-11-27T15:09:49.922Z,10.60
2022-11-27T15:12:16.446Z,14.00
2022-11-27T15:15:07.646Z,11.57
2022-11-27T15:17:37.780Z,10.37
2022-11-27T15:20:16.700Z,9.37
2022-11-27T15:22:51.473Z,11.50
2022-11-27T15:25:30.333Z,9.17
2022-11-27T15:27:56.985Z,9.53
2022-11-27T15:30:23.727Z,9.83
2022-11-27T15:32:52.195Z,9.70
2022-11-27T15:35:28.437Z,8.93
2022-11-27T15:37:57.246Z,6.50
2022-11-27T15:40:29.029Z,7.00
2022-11-27T15:42:55.750Z,6.07
2022-11-27T15:45:22.715Z,6.50
2022-11-27T15:47:49.278Z,6.50
2022-11-27T15:50:17.104Z,6.70
2022-11-27T15:52:43.772Z,7.97
2022-11-27T15:55:15.788Z,11.10
2022-11-27T15:57:42.945Z,9.17
2022-11-27T16:00:10.706Z,9.90
2022-11-27T16:02:40.174Z,9.13
2022-11-27T16:05:08.536Z,7.43
2022-11-27T16:07:35.307Z,8.03
2022-11-27T16:10:01.883Z,9.67
2022-11-27T16:12:28.385Z,11.60
2022-11-27T16:14:54.954Z,7.40
2022-11-27T16:17:21.504Z,12.83
2022-11-27T16:19:48.139Z,10.23
2022-11-27T16:22:14.714Z,9.13
2022-11-27T16:24:41.605Z,9.93
2022-11-27T16:27:08.332Z,8.10
2022-11-27T16:29:34.882Z,13.60
2022-11-27T16:32:02.344Z,8.97
2022-11-27T16:34:28.983Z,10.57
2022-11-27T16:36:55.524Z,10.67
2022-11-27T16:39:23.419Z,8.93
2022-11-27T16:41:50.043Z,13.03
2022-11-27T16:44:18.409Z,13.67
2022-11-27T16:46:45.041Z,11.50
2022-11-27T16:49:12.397Z,10.93
2022-11-27T16:51:40.719Z,12.83
2022-11-27T16:54:12.311Z,17.40
2022-11-27T16:56:41.403Z,18.53
2022-11-27T16:59:10.932Z,11.47
2022-11-27T17:01:40.963Z,14.10
2022-11-27T17:04:11.500Z,11.30
2022-11-27T17:06:39.099Z,9.63
2022-11-27T17:09:07.256Z,14.43
2022-11-27T17:11:35.875Z,12.00
2022-11-27T17:14:06.733Z,10.30
2022-11-27T17:16:35.094Z,8.67
2022-11-27T17:19:03.650Z,11.30
2022-11-27T17:21:33.960Z,8.47
2022-11-27T17:24:11.682Z,9.77
2022-11-27T17:26:43.536Z,11.17
2022-11-27T17:29:11.671Z,9.37
2022-11-27T17:31:39.187Z,9.90
2022-11-27T17:34:07.463Z,9.13
2022-11-27T17:36:37.358Z,14.63
2022-11-27T17:39:06.354Z,9.37
2022-11-27T17:41:33.451Z,9.93
2022-11-27T17:44:00.466Z,10.43
2022-11-27T17:46:28.935Z,11.33
2022-11-27T17:48:59.109Z,9.13
2022-11-27T17:51:27.456Z,11.23
2022-11-27T17:53:54.187Z,7.70
2022-11-27T17:56:22.370Z,9.50
2022-11-27T17:58:49.149Z,8.40
2022-11-27T18:01:18.584Z,8.53
2022-11-27T18:03:46.409Z,8.13
2022-11-27T18:06:16.350Z,8.80
2022-11-27T18:08:43.995Z,9.87
2022-11-27T18:11:25.064Z,11.90
2022-11-27T18:13:52.056Z,9.27
2022-11-27T18:16:22.107Z,11.20
2022-11-27T18:18:49.736Z,14.00
2022-11-27T18:21:21.157Z,11.93
2022-11-27T18:24:21.493Z,8.73
2022-11-27T18:27:06.615Z,8.73
2022-11-27T18:29:23.436Z,13.53
2022-11-27T18:31:51.084Z,12.07
2022-11-27T18:34:18.222Z,10.77
2022-11-27T18:36:45.970Z,10.77
2022-11-27T18:39:12.871Z,13.37
2022-11-27T18:41:40.694Z,11.77
2022-11-27T18:44:08.574Z,9.77
2022-11-27T18:46:35.314Z,10.17
2022-11-27T18:49:01.999Z,12.77
2022-11-27T18:51:28.655Z,11.73
2022-11-27T18:53:57.718Z,11.63
2022-11-27T18:56:30.559Z,11.70
2022-11-27T18:59:05.910Z,9.97
2022-11-27T19:01:41.310Z,10.07
2022-11-27T19:04:10.942Z,11.10
2022-11-27T19:06:39.431Z,10.93
2022-11-27T19:09:06.207Z,10.33
2022-11-27T19:11:33.978Z,11.73
2022-11-27T19:14:01.287Z,11.83
2022-11-27T19:16:31.971Z,9.63
2022-11-27T19:19:00.093Z,11.67
2022-11-27T19:21:29.338Z,12.30
2022-11-27T19:23:58.737Z,14.37
2022-11-27T19:26:28.152Z,10.67
2022-11-27T19:28:57.468Z,12.10
2022-11-27T19:31:25.025Z,11.60
2022-11-27T19:33:58.777Z,11.13
2022-11-27T19:36:26.074Z,13.63
2022-11-27T19:39:05.176Z,12.40
2022-11-27T19:41:32.636Z,10.50
2022-11-27T19:44:01.519Z,21.40
2022-11-27T19:46:31.268Z,16.17
2022-11-27T19:49:00.414Z,11.00
2022-11-27T19:51:28.247Z,12.23
2022-11-27T19:53:55.745Z,17.97
2022-11-27T19:56:23.738Z,12.17
2022-11-27T19:58:50.415Z,11.60
2022-11-27T20:01:19.560Z,12.97
2022-11-27T20:03:48.267Z,11.43
2022-11-27T20:06:20.713Z,11.67
2022-11-27T20:08:49.952Z,11.70
2022-11-27T20:11:20.220Z,9.83
2022-11-27T20:13:47.358Z,15.10
2022-11-27T20:16:19.618Z,14.20
2022-11-27T20:18:47.282Z,12.70
2022-11-27T20:21:17.477Z,10.73
2022-11-27T20:23:45.552Z,11.10
2022-11-27T20:26:15.298Z,10.10
2022-11-27T20:28:43.289Z,10.03
2022-11-27T20:31:16.369Z,10.17
2022-11-27T20:33:43.332Z,11.50
2022-11-27T20:36:12.281Z,10.97
2022-11-27T20:38:39.270Z,9.10
2022-11-27T20:41:11.442Z,10.07
2022-11-27T20:43:38.693Z,7.87
2022-11-27T20:46:07.753Z,10.43
2022-11-27T20:48:35.216Z,9.33
2022-11-27T20:51:25.326Z,10.23
2022-11-27T20:53:53.444Z,9.10
2022-11-27T20:56:20.800Z,11.50
2022-11-27T20:58:49.057Z,8.87
2022-11-27T21:01:20.879Z,8.37
2022-11-27T21:03:50.392Z,9.10
2022-11-27T21:06:20.823Z,13.53
2022-11-27T21:08:48.887Z,8.70
2022-11-27T21:11:18.364Z,9.03
2022-11-27T21:13:45.175Z,13.83
2022-11-27T21:16:13.767Z,10.60
2022-11-27T21:18:40.855Z,10.17
2022-11-27T21:21:14.238Z,9.77
2022-11-27T21:23:41.951Z,11.67
2022-11-27T21:26:10.879Z,12.30
2022-11-27T21:28:38.195Z,10.50
2022-11-27T21:31:10.859Z,9.60
2022-11-27T21:33:37.946Z,11.00
2022-11-27T21:36:05.237Z,9.93
2022-11-27T21:38:32.581Z,10.33
2022-11-27T21:40:59.236Z,16.43
2022-11-27T21:43:25.943Z,10.13
2022-11-27T21:45:52.787Z,11.33
2022-11-27T21:48:20.641Z,9.90
2022-11-27T21:50:47.488Z,11.30
2022-11-27T21:53:14.287Z,9.90
2022-11-27T21:55:42.878Z,11.00
2022-11-27T21:58:09.705Z,9.37
2022-11-27T22:00:36.745Z,10.40
2022-11-27T22:03:03.669Z,11.00
2022-11-27T22:05:30.335Z,13.07
2022-11-27T22:07:56.936Z,12.83
2022-11-27T22:10:23.577Z,9.30
2022-11-27T22:12:50.613Z,10.20
2022-11-27T22:15:17.362Z,9.33
2022-11-27T22:17:43.929Z,10.87
2022-11-27T22:20:11.101Z,10.43
2022-11-27T22:22:37.782Z,10.67
2022-11-27T22:25:05.314Z,9.03
2022-11-27T22:27:32.172Z,10.00
2022-11-27T22:29:59.075Z,10.20
2022-11-27T22:32:25.922Z,9.83
2022-11-27T22:34:52.515Z,13.40
2022-11-27T22:37:19.525Z,12.47
2022-11-27T22:39:46.128Z,16.10
2022-11-27T22:42:12.693Z,9.77
2022-11-27T22:44:39.654Z,11.80
2022-11-27T22:47:06.635Z,10.27
2022-11-27T22:49:33.139Z,11.67
2022-11-27T22:52:00.040Z,13.17
2022-11-27T22:54:28.069Z,10.87
2022-11-27T22:56:54.862Z,10.70
2022-11-27T22:59:32.300Z,12.70
2022-11-27T23:02:01.620Z,12.97
2022-11-27T23:04:28.407Z,11.20
2022-11-27T23:06:54.943Z,9.27
2022-11-27T23:09:21.831Z,11.13
2022-11-27T23:11:48.436Z,11.40
2022-11-27T23:14:15.515Z,10.97
2022-11-27T23:16:42.195Z,14.57
2022-11-27T23:19:09.753Z,11.17
2022-11-27T23:21:38.627Z,10.20
2022-11-27T23:24:07.253Z,14.07
2022-11-27T23:26:34.126Z,10.93
2022-11-27T23:29:00.709Z,11.80
2022-11-27T23:31:31.460Z,12.07
2022-11-27T23:34:01.789Z,11.43
2022-11-27T23:36:30.415Z,11.83
2022-11-27T23:39:00.505Z,10.77
2022-11-27T23:41:27.160Z,11.50
2022-11-27T23:43:54.081Z,11.20
2022-11-27T23:46:22.680Z,12.67
2022-11-27T23:48:49.453Z,11.10
2022-11-27T23:51:19.408Z,9.87
2022-11-27T23:53:47.177Z,11.27
2022-11-27T23:56:16.513Z,9.73
2022-11-27T23:58:47.294Z,10.00
